Time;durP1;ratioP1;P1;durP2;ratioP2;P2;SDS_P1;SDS_P2;PMS_P1;PMS_P2;Temp;Humidity;BMP_temperature;BMP_pressure;BME280_temperature;BME280_humidity;BME280_pressure;Samples;Min_cycle;Max_cycle;Signal;HPM_P1;HPM_P2
2023/07/14 00:00:31;;;;;;;16.15;6.28;;;;;;;29.84;55.31;98765.34;2056928;28;20101;-49
2023/07/14 00:01:32;;;;;;;20.88;7.55;;;;;;;29.83;55.06;98766.44;2057746;28;20054;-51
2023/07/14 00:02:33;;;;;;;12.27;5.60;;;;;;;29.83;55.22;98767.25;2058305;28;21093;-50
2023/07/14 00:03:34;;;;;;;13.35;5.88;;;;;;;29.84;55.05;98762.63;2055956;28;20146;-51
2023/07/14 00:04:39;;;;;;;17.80;6.50;;;;;;;29.85;55.10;98767.00;2057525;28;20051;-50
2023/07/14 00:05:41;;;;;;;17.80;6.40;;;;;;;29.84;55.06;98763.44;2056914;28;20050;-49
2023/07/14 00:06:43;;;;;;;14.15;6.97;;;;;;;29.86;55.16;98763.16;2054123;28;20066;-50
2023/07/14 00:07:48;;;;;;;19.33;5.93;;;;;;;29.84;55.29;98765.34;2057146;28;20081;-51
2023/07/14 00:08:49;;;;;;;16.80;6.07;;;;;;;29.82;55.02;98760.16;2064372;28;20403;-51
2023/07/14 00:09:51;;;;;;;17.38;5.85;;;;;;;29.84;55.01;98762.63;2055051;28;20055;-52
2023/07/14 00:10:55;;;;;;;18.77;6.57;;;;;;;29.83;55.16;98756.31;2057914;28;20050;-53
2023/07/14 00:11:57;;;;;;;11.05;5.93;;;;;;;29.82;55.51;98762.06;2057356;28;20642;-50
2023/07/14 00:12:59;;;;;;;14.95;5.93;;;;;;;29.82;55.14;98756.59;2055476;28;20089;-49
2023/07/14 00:14:00;;;;;;;13.32;6.68;;;;;;;29.81;55.42;98760.41;2057482;28;20153;-51
2023/07/14 00:15:01;;;;;;;16.02;7.03;;;;;;;29.81;55.20;98755.78;2056815;28;20078;-49
2023/07/14 00:16:03;;;;;;;13.27;7.07;;;;;;;29.81;55.00;98754.94;2055190;28;20645;-53
2023/07/14 00:17:09;;;;;;;18.17;6.00;;;;;;;29.83;55.29;98758.22;2055794;28;20130;-49
2023/07/14 00:18:18;;;;;;;9.85;5.53;;;;;;;29.77;55.45;98757.41;2053213;28;20052;-52
2023/07/14 00:19:19;;;;;;;18.67;6.53;;;;;;;29.79;55.29;98751.69;2055128;28;20072;-49
2023/07/14 00:20:24;;;;;;;12.65;5.63;;;;;;;29.78;55.39;98758.22;2058720;28;20042;-50
2023/07/14 00:21:26;;;;;;;15.98;5.90;;;;;;;29.72;55.56;98756.59;2056187;28;20081;-50
2023/07/14 00:22:28;;;;;;;16.33;6.03;;;;;;;29.73;55.48;98756.34;2055964;28;20050;-51
2023/07/14 00:23:29;;;;;;;19.23;7.35;;;;;;;29.74;55.42;98754.41;2056168;28;20133;-50
2023/07/14 00:24:32;;;;;;;18.67;6.82;;;;;;;29.75;55.26;98750.59;2055665;28;20061;-51
2023/07/14 00:25:33;;;;;;;14.68;6.18;;;;;;;29.76;55.54;98760.44;2055182;28;20058;-50
2023/07/14 00:26:37;;;;;;;16.20;5.80;;;;;;;29.77;55.41;98759.34;2062494;28;20042;-53
2023/07/14 00:27:38;;;;;;;17.27;6.97;;;;;;;29.75;55.40;98753.31;2055439;28;20570;-52
2023/07/14 00:28:40;;;;;;;21.17;6.45;;;;;;;29.74;55.71;98754.41;2056991;28;20042;-52
2023/07/14 00:29:42;;;;;;;13.68;6.53;;;;;;;29.71;55.75;98752.25;2056897;28;20795;-52
2023/07/14 00:30:44;;;;;;;11.25;6.35;;;;;;;29.75;55.66;98756.06;2055597;28;20077;-52
2023/07/14 00:31:45;;;;;;;16.70;6.90;;;;;;;29.72;55.31;98757.41;2058225;28;20057;-50
2023/07/14 00:32:48;;;;;;;12.00;6.30;;;;;;;29.72;55.61;98745.66;2058028;28;20153;-51
2023/07/14 00:33:51;;;;;;;17.55;7.00;;;;;;;29.73;55.58;98753.59;2057390;28;20428;-53
2023/07/14 00:34:53;;;;;;;17.65;6.05;;;;;;;29.73;55.43;98750.88;2057450;28;20058;-50
2023/07/14 00:35:53;;;;;;;19.30;7.00;;;;;;;29.72;55.44;98748.41;2056496;28;20563;-52
2023/07/14 00:36:55;;;;;;;12.15;6.10;;;;;;;29.72;55.16;98751.94;2057780;28;20056;-50
2023/07/14 00:37:57;;;;;;;14.73;5.88;;;;;;;29.75;55.27;98750.59;2056320;28;20058;-50
2023/07/14 00:38:59;;;;;;;11.65;6.07;;;;;;;29.73;55.16;98747.31;2056819;28;20054;-52
2023/07/14 00:40:00;;;;;;;19.98;6.65;;;;;;;29.65;55.61;98748.69;2058039;28;20078;-52
2023/07/14 00:41:02;;;;;;;12.30;6.43;;;;;;;29.67;55.40;98748.41;2057482;28;20133;-52
2023/07/14 00:42:07;;;;;;;15.90;5.82;;;;;;;29.63;55.51;98748.13;2056909;28;20046;-51
2023/07/14 00:43:14;;;;;;;14.93;6.38;;;;;;;29.66;55.73;98753.06;2057854;28;20057;-50
2023/07/14 00:44:17;;;;;;;17.42;6.95;;;;;;;29.66;55.58;98752.22;2058848;28;20050;-51
2023/07/14 00:45:21;;;;;;;17.08;7.03;;;;;;;29.65;55.62;98750.59;2061393;28;20074;-49
2023/07/14 00:46:27;;;;;;;12.60;6.53;;;;;;;29.63;55.59;98742.66;2055272;28;20050;-51
2023/07/14 00:47:29;;;;;;;19.45;6.05;;;;;;;29.58;55.91;98745.38;2059201;28;20053;-52
2023/07/14 00:48:33;;;;;;;20.08;6.60;;;;;;;29.54;56.01;98744.28;2053010;28;20052;-50
2023/07/14 00:49:38;;;;;;;18.05;7.18;;;;;;;29.58;55.67;98743.44;2064696;28;20041;-50
2023/07/14 00:50:43;;;;;;;17.88;6.65;;;;;;;29.61;55.62;98753.00;2057266;28;20060;-50
2023/07/14 00:51:46;;;;;;;13.93;6.40;;;;;;;29.61;55.92;98745.66;2056198;28;20093;-51
2023/07/14 00:52:48;;;;;;;21.92;6.90;;;;;;;29.64;55.79;98747.03;2058426;28;20499;-50
2023/07/14 00:53:49;;;;;;;15.77;5.25;;;;;;;29.66;55.70;98747.59;2065307;28;20050;-52
2023/07/14 00:54:52;;;;;;;15.00;5.78;;;;;;;29.67;55.79;98749.25;2065559;28;20426;-51
2023/07/14 00:55:58;;;;;;;9.73;6.13;;;;;;;29.65;55.51;98751.41;2058305;28;20054;-49
2023/07/14 00:57:01;;;;;;;12.85;6.80;;;;;;;29.62;55.32;98739.09;2056406;28;20105;-54
2023/07/14 00:58:09;;;;;;;19.25;6.75;;;;;;;29.64;55.74;98746.22;2054491;28;20124;-54
2023/07/14 00:59:16;;;;;;;13.98;6.43;;;;;;;29.65;55.50;98739.69;2057005;28;20050;-52
2023/07/14 01:00:24;;;;;;;16.95;6.43;;;;;;;29.60;55.47;98744.00;2057043;28;20818;-50
2023/07/14 01:01:26;;;;;;;13.75;6.03;;;;;;;29.64;55.82;98748.94;2058137;28;20050;-55
2023/07/14 01:02:28;;;;;;;13.98;5.65;;;;;;;29.62;55.78;98750.03;2057006;28;20828;-53
2023/07/14 01:03:29;;;;;;;14.00;5.15;;;;;;;29.59;55.63;98747.84;2057470;28;20050;-58
2023/07/14 01:04:31;;;;;;;20.65;6.85;;;;;;;29.61;55.54;98745.66;2056531;28;20524;-58
2023/07/14 01:05:33;;;;;;;20.20;5.82;;;;;;;29.61;55.67;98745.66;2057337;28;20073;-57
2023/07/14 01:06:40;;;;;;;12.63;5.57;;;;;;;29.64;55.55;98746.22;2057179;28;20058;-55
2023/07/14 01:07:44;;;;;;;14.70;5.70;;;;;;;29.62;55.44;98752.75;2057167;28;20054;-57
2023/07/14 01:08:55;;;;;;;15.18;6.18;;;;;;;29.62;55.68;98747.28;2064421;28;20103;-56
2023/07/14 01:09:58;;;;;;;11.40;6.00;;;;;;;29.60;55.31;98749.47;2063349;28;20050;-56
2023/07/14 01:11:00;;;;;;;16.98;5.70;;;;;;;29.62;55.57;98752.75;2055940;28;20050;-54
2023/07/14 01:12:03;;;;;;;13.20;5.35;;;;;;;29.61;55.22;98745.66;2056954;28;20070;-55
2023/07/14 01:13:09;;;;;;;17.13;6.45;;;;;;;29.59;55.44;98747.84;2056234;28;20419;-54
2023/07/14 01:14:16;;;;;;;18.20;6.30;;;;;;;29.60;54.98;98743.19;2058813;28;20070;-56
2023/07/14 01:15:18;;;;;;;13.75;6.07;;;;;;;29.61;55.25;98748.41;2061428;28;20081;-50
2023/07/14 01:16:19;;;;;;;16.08;6.22;;;;;;;29.64;55.31;98743.47;2057906;28;20054;-52
2023/07/14 01:17:22;;;;;;;16.65;5.70;;;;;;;29.64;55.22;98744.28;2055634;28;20050;-52
2023/07/14 01:18:23;;;;;;;18.45;5.68;;;;;;;29.64;55.31;98743.47;2049046;28;20050;-53
2023/07/14 01:19:36;;;;;;;16.45;5.78;;;;;;;29.62;55.18;98741.81;2056936;28;20072;-55
2023/07/14 01:20:38;;;;;;;16.50;5.90;;;;;;;29.62;55.39;98741.81;2058009;28;20066;-53
2023/07/14 01:21:41;;;;;;;14.02;8.50;;;;;;;29.62;55.25;98736.34;2058193;28;20046;-59
2023/07/14 01:22:52;;;;;;;16.77;5.90;;;;;;;29.60;55.07;98743.19;2056870;28;20448;-58
2023/07/14 01:24:02;;;;;;;16.75;7.00;;;;;;;29.58;55.70;98746.19;2062731;28;20058;-54
2023/07/14 01:25:15;;;;;;;11.68;6.25;;;;;;;29.61;55.44;98740.19;2057593;28;20145;-58
2023/07/14 01:26:29;;;;;;;12.98;7.18;;;;;;;29.59;55.30;98736.09;2055183;28;20050;-51
2023/07/14 01:27:32;;;;;;;14.13;5.78;;;;;;;29.59;55.36;98734.19;2058154;28;20319;-48
2023/07/14 01:28:33;;;;;;;9.15;5.20;;;;;;;29.59;55.20;98741.56;2057392;28;20054;-56
2023/07/14 01:29:37;;;;;;;14.52;5.90;;;;;;;29.59;55.35;98741.56;2057381;28;20073;-55
2023/07/14 01:30:39;;;;;;;13.65;5.68;;;;;;;29.61;54.89;98739.34;2058488;28;20058;-52
2023/07/14 01:31:41;;;;;;;14.13;6.78;;;;;;;29.64;55.23;98744.28;2043526;28;20058;-53
2023/07/14 01:32:44;;;;;;;18.10;5.85;;;;;;;29.64;55.36;98738.84;2054487;28;20155;-60
2023/07/14 01:33:46;;;;;;;15.40;7.40;;;;;;;29.62;55.23;98746.47;2058317;28;20069;-51
2023/07/14 01:34:47;;;;;;;20.40;6.57;;;;;;;29.59;55.23;98739.63;2065287;28;20053;-58
2023/07/14 01:35:54;;;;;;;18.00;6.57;;;;;;;29.58;55.25;98737.97;2058304;28;20534;-55
2023/07/14 01:36:58;;;;;;;12.05;5.47;;;;;;;29.54;55.43;98733.34;2057347;28;20750;-54
2023/07/14 01:38:00;;;;;;;15.20;5.60;;;;;;;29.56;55.29;98737.47;2053108;28;20584;-57
2023/07/14 01:39:01;;;;;;;18.92;7.40;;;;;;;29.54;55.28;98738.81;2057088;28;22355;-55
2023/07/14 01:40:05;;;;;;;14.45;6.45;;;;;;;29.56;55.51;98734.72;2057409;28;20061;-51
2023/07/14 01:41:08;;;;;;;12.07;5.93;;;;;;;29.54;55.30;98741.56;2056535;28;20177;-58
2023/07/14 01:42:09;;;;;;;10.10;5.15;;;;;;;29.53;54.91;98740.75;2058557;28;20069;-57
2023/07/14 01:43:13;;;;;;;14.20;7.05;;;;;;;29.56;55.41;98737.47;2056335;28;20042;-57
2023/07/14 01:44:18;;;;;;;20.73;5.80;;;;;;;29.56;55.34;98742.91;2053034;28;20133;-54
2023/07/14 01:45:19;;;;;;;18.05;6.93;;;;;;;29.54;55.31;98736.91;2059963;28;20046;-57
2023/07/14 01:46:23;;;;;;;14.88;6.15;;;;;;;29.53;55.29;98737.16;2062930;28;20077;-50
2023/07/14 01:47:24;;;;;;;13.38;5.97;;;;;;;29.53;55.08;98745.38;2060576;28;20046;-55
2023/07/14 01:48:32;;;;;;;16.60;5.72;;;;;;;29.54;55.37;98727.88;2058596;28;20152;-52
2023/07/14 01:49:38;;;;;;;13.73;6.20;;;;;;;29.52;55.44;98730.88;2054179;28;20432;-58
2023/07/14 01:50:43;;;;;;;13.38;5.55;;;;;;;29.50;55.17;98735.78;2055405;28;20052;-51
2023/07/14 01:51:48;;;;;;;16.23;6.90;;;;;;;29.50;55.26;98733.06;2058562;28;20039;-56
2023/07/14 01:52:54;;;;;;;16.00;6.68;;;;;;;29.49;55.02;98731.44;2057754;28;20523;-57
2023/07/14 01:54:06;;;;;;;15.68;6.43;;;;;;;29.49;55.27;98734.16;2054545;28;20050;-55
2023/07/14 01:55:12;;;;;;;18.17;6.95;;;;;;;29.44;55.25;98742.34;2059013;28;20161;-50
2023/07/14 01:56:19;;;;;;;14.82;7.30;;;;;;;29.46;55.41;98734.72;2052047;28;20057;-54
2023/07/14 01:57:24;;;;;;;15.68;5.72;;;;;;;29.49;55.30;98736.09;2059964;28;20050;-50
2023/07/14 01:58:32;;;;;;;13.95;6.40;;;;;;;29.45;55.14;98730.34;2057014;28;20431;-54
2023/07/14 01:59:37;;;;;;;18.67;5.93;;;;;;;29.48;55.27;98729.81;2057656;28;20050;-54
2023/07/14 02:00:40;;;;;;;15.18;5.32;;;;;;;29.49;55.41;98734.16;2064868;28;20101;-54
2023/07/14 02:01:43;;;;;;;10.23;5.93;;;;;;;29.55;54.80;98730.34;2059689;28;20066;-56
2023/07/14 02:02:47;;;;;;;12.68;6.10;;;;;;;29.51;54.82;98732.00;2053176;28;20064;-57
2023/07/14 02:03:53;;;;;;;15.25;6.30;;;;;;;29.51;54.56;98729.25;2058382;28;20081;-57
2023/07/14 02:04:55;;;;;;;14.82;6.40;;;;;;;29.51;54.61;98722.97;2064153;28;20146;-57
2023/07/14 02:05:55;;;;;;;9.93;5.32;;;;;;;29.50;55.04;98722.13;2065088;28;20050;-60
2023/07/14 02:06:57;;;;;;;18.63;6.35;;;;;;;29.51;54.77;98728.44;2058525;28;20062;-51
2023/07/14 02:08:04;;;;;;;11.25;5.22;;;;;;;29.52;54.93;98728.16;2055945;28;20137;-54
2023/07/14 02:09:05;;;;;;;15.27;5.97;;;;;;;29.52;54.96;98721.88;2062078;28;20500;-56
2023/07/14 02:10:13;;;;;;;9.55;5.38;;;;;;;29.54;54.81;98727.88;2059037;28;20058;-58
2023/07/14 02:11:17;;;;;;;13.38;6.00;;;;;;;29.53;54.71;98727.06;2057751;28;20058;-55
2023/07/14 02:12:25;;;;;;;12.40;5.93;;;;;;;29.53;54.80;98726.22;2056679;28;20227;-52
2023/07/14 02:13:28;;;;;;;12.88;4.63;;;;;;;29.52;54.73;98730.88;2055744;28;20134;-56
2023/07/14 02:14:39;;;;;;;18.48;6.97;;;;;;;29.49;54.90;98728.69;2053201;28;20504;-53
2023/07/14 02:15:40;;;;;;;13.38;5.10;;;;;;;29.48;55.11;98724.34;2055489;28;20054;-56
2023/07/14 02:16:43;;;;;;;15.95;5.60;;;;;;;29.50;54.90;98727.59;2062341;28;21106;-50
2023/07/14 02:17:45;;;;;;;13.55;5.35;;;;;;;29.50;54.88;98721.31;2058146;28;20061;-52
2023/07/14 02:18:48;;;;;;;18.05;7.07;;;;;;;29.46;54.64;98718.31;2058225;28;20057;-58
2023/07/14 02:19:50;;;;;;;15.57;6.40;;;;;;;29.49;54.76;98722.41;2055934;28;20050;-56
2023/07/14 02:20:54;;;;;;;13.07;6.10;;;;;;;29.47;55.05;98721.88;2053880;28;20053;-55
2023/07/14 02:21:55;;;;;;;13.63;5.82;;;;;;;29.46;54.90;98715.59;2057102;28;20058;-55
2023/07/14 02:23:01;;;;;;;13.40;6.18;;;;;;;29.48;55.05;98720.78;2057777;28;20046;-57
2023/07/14 02:24:04;;;;;;;19.52;6.45;;;;;;;29.48;54.96;98718.88;2058685;28;20073;-53
2023/07/14 02:25:10;;;;;;;9.07;5.40;;;;;;;29.50;54.80;98722.13;2057235;28;20133;-57
2023/07/14 02:26:21;;;;;;;13.43;5.93;;;;;;;29.48;55.05;98729.00;2057112;28;20050;-52
2023/07/14 02:27:24;;;;;;;15.07;5.57;;;;;;;29.43;55.20;98729.81;2054875;28;20084;-58
2023/07/14 02:28:26;;;;;;;12.70;5.65;;;;;;;29.43;55.13;98731.72;2054855;28;20124;-56
2023/07/14 02:29:30;;;;;;;15.23;6.25;;;;;;;29.44;55.00;98731.44;2057219;28;20643;-59
2023/07/14 02:30:33;;;;;;;14.18;5.80;;;;;;;29.40;55.33;98736.63;2055965;28;20137;-54
2023/07/14 02:31:40;;;;;;;17.08;5.65;;;;;;;29.42;55.26;98736.38;2057161;28;20129;-52
2023/07/14 02:32:46;;;;;;;15.88;7.32;;;;;;;29.44;55.23;98734.16;2054889;28;20050;-57
2023/07/14 02:33:50;;;;;;;15.50;6.35;;;;;;;29.42;55.25;98732.78;2053930;28;20050;-52
2023/07/14 02:34:55;;;;;;;15.13;6.85;;;;;;;29.40;55.35;98735.81;2064681;28;20074;-59
2023/07/14 02:36:02;;;;;;;13.00;5.38;;;;;;;29.40;55.32;98727.63;2057320;28;20132;-49
2023/07/14 02:37:24;;;;;;;10.00;4.72;;;;;;;29.35;55.40;98736.63;2057389;28;20398;-55
2023/07/14 02:38:26;;;;;;;15.30;6.57;;;;;;;29.26;55.96;98737.44;2056684;28;20054;-54
2023/07/14 02:39:35;;;;;;;11.93;5.55;;;;;;;29.25;55.85;98730.31;2057240;28;20058;-57
2023/07/14 02:40:38;;;;;;;21.80;7.13;;;;;;;29.29;55.72;98739.63;2058514;28;20149;-55
2023/07/14 02:41:43;;;;;;;13.23;5.53;;;;;;;29.33;55.87;98740.72;2057056;28;20660;-55
2023/07/14 02:42:44;;;;;;;11.68;6.18;;;;;;;29.32;55.73;98739.91;2058119;28;20073;-54
2023/07/14 02:43:50;;;;;;;16.38;6.25;;;;;;;29.30;55.54;98736.59;2057153;28;20057;-54
2023/07/14 02:44:52;;;;;;;13.27;6.20;;;;;;;29.30;55.63;98739.34;2056337;28;20495;-59
2023/07/14 02:45:57;;;;;;;17.95;6.45;;;;;;;29.32;55.63;98739.09;2053687;28;20432;-57
2023/07/14 02:47:02;;;;;;;13.77;5.25;;;;;;;29.29;55.85;98736.91;2057244;28;20050;-51
2023/07/14 02:48:10;;;;;;;14.98;6.15;;;;;;;29.25;55.78;98736.59;2058294;28;20060;-55
2023/07/14 02:49:11;;;;;;;17.25;6.95;;;;;;;29.20;55.69;98738.50;2055229;28;20070;-56
2023/07/14 02:50:13;;;;;;;14.30;6.53;;;;;;;29.20;56.06;98738.50;2057905;28;20205;-58
2023/07/14 02:51:15;;;;;;;20.50;6.65;;;;;;;29.20;56.05;98738.50;2057990;28;20062;-50
2023/07/14 02:52:16;;;;;;;14.68;5.53;;;;;;;29.14;56.16;98740.41;2051795;28;20057;-48
2023/07/14 02:53:17;;;;;;;15.20;5.78;;;;;;;29.09;56.20;98741.25;2056747;28;20057;-47
2023/07/14 02:54:19;;;;;;;18.00;6.70;;;;;;;29.15;56.42;98742.88;2054801;28;20076;-49
2023/07/14 02:55:20;;;;;;;14.80;6.20;;;;;;;29.10;56.46;98742.88;2056977;28;20547;-53
2023/07/14 02:56:22;;;;;;;19.30;6.78;;;;;;;29.08;56.18;98746.97;2057269;28;20525;-48
2023/07/14 02:57:23;;;;;;;11.52;5.40;;;;;;;29.11;56.33;98744.53;2057120;28;20882;-49
2023/07/14 02:58:25;;;;;;;14.95;6.57;;;;;;;29.06;56.37;98744.50;2053183;28;20050;-56
2023/07/14 02:59:26;;;;;;;14.70;7.32;;;;;;;29.03;56.73;98746.91;2055254;28;20713;-50
2023/07/14 03:00:29;;;;;;;19.40;6.60;;;;;;;29.00;56.69;98748.25;2056978;28;20133;-52
2023/07/14 03:01:32;;;;;;;14.63;6.35;;;;;;;29.05;56.47;98751.03;2056980;28;20069;-55
2023/07/14 03:02:33;;;;;;;15.63;5.18;;;;;;;29.09;56.23;98754.91;2058966;28;20089;-52
2023/07/14 03:03:36;;;;;;;20.15;7.80;;;;;;;29.12;56.38;98748.06;2062457;28;20536;-47
2023/07/14 03:04:37;;;;;;;15.48;6.82;;;;;;;29.09;56.59;98743.97;2055182;28;20617;-52
2023/07/14 03:05:39;;;;;;;14.23;6.50;;;;;;;29.11;56.13;98744.53;2058983;28;20081;-48
2023/07/14 03:06:40;;;;;;;16.20;5.47;;;;;;;29.13;56.23;98745.06;2055953;28;20054;-52
2023/07/14 03:07:42;;;;;;;14.02;6.32;;;;;;;29.12;56.17;98750.81;2056152;28;20054;-49
2023/07/14 03:08:43;;;;;;;11.70;5.43;;;;;;;29.14;56.08;98752.19;2058811;28;20090;-51
2023/07/14 03:09:45;;;;;;;14.27;6.05;;;;;;;29.12;56.19;98743.44;2055564;28;20607;-52
2023/07/14 03:10:47;;;;;;;16.92;6.88;;;;;;;29.16;56.14;98747.25;2051800;28;20057;-53
2023/07/14 03:11:49;;;;;;;13.48;6.30;;;;;;;29.17;55.96;98740.72;2055523;28;20050;-59
2023/07/14 03:12:50;;;;;;;16.55;6.25;;;;;;;29.15;55.96;98745.63;2057882;28;20046;-52
2023/07/14 03:13:52;;;;;;;20.23;6.30;;;;;;;29.16;55.89;98741.78;2056379;28;20065;-50
2023/07/14 03:14:53;;;;;;;23.05;6.93;;;;;;;29.15;56.07;98745.63;2057478;28;20066;-51
2023/07/14 03:15:57;;;;;;;16.23;6.28;;;;;;;29.10;56.28;98748.31;2058663;28;20175;-52
2023/07/14 03:16:57;;;;;;;15.40;6.32;;;;;;;29.11;56.32;98740.94;2052139;28;20542;-52
2023/07/14 03:18:00;;;;;;;13.15;5.18;;;;;;;29.09;56.28;98746.69;2064667;28;20065;-50
2023/07/14 03:19:02;;;;;;;13.48;5.72;;;;;;;29.11;56.35;98750.00;2054741;28;20472;-51
2023/07/14 03:20:04;;;;;;;18.02;6.15;;;;;;;29.12;56.15;98742.63;2057933;28;20046;-49
2023/07/14 03:21:05;;;;;;;11.82;5.60;;;;;;;29.08;56.36;98746.97;2056372;28;20053;-52
2023/07/14 03:22:07;;;;;;;16.63;5.72;;;;;;;29.08;56.21;98755.97;2054581;28;20047;-51
2023/07/14 03:23:08;;;;;;;14.25;5.60;;;;;;;29.13;56.24;98755.16;2053276;28;21570;-51
2023/07/14 03:24:10;;;;;;;10.40;5.90;;;;;;;29.13;56.24;98750.53;2058975;28;20712;-53
2023/07/14 03:25:11;;;;;;;10.50;5.47;;;;;;;29.11;56.13;98760.91;2060629;28;20205;-52
2023/07/14 03:26:12;;;;;;;14.38;6.70;;;;;;;29.13;56.18;98749.69;2056544;28;20052;-54
2023/07/14 03:27:13;;;;;;;16.70;6.07;;;;;;;29.14;56.04;98752.19;2055736;28;20635;-49
2023/07/14 03:28:15;;;;;;;16.02;6.53;;;;;;;29.12;55.90;98754.34;2057603;28;20137;-50
2023/07/14 03:29:16;;;;;;;18.35;6.60;;;;;;;29.10;56.21;98756.53;2052823;28;20050;-53
2023/07/14 03:30:18;;;;;;;16.05;6.65;;;;;;;29.13;56.11;98755.16;2059163;28;20046;-51
2023/07/14 03:31:20;;;;;;;12.18;5.70;;;;;;;29.13;55.98;98755.97;2062091;28;20676;-51
2023/07/14 03:32:22;;;;;;;15.52;5.82;;;;;;;29.16;56.21;98754.63;2057645;28;20152;-55
2023/07/14 03:33:23;;;;;;;15.32;6.35;;;;;;;29.15;55.85;98756.53;2058277;28;20477;-51
2023/07/14 03:34:25;;;;;;;11.00;5.72;;;;;;;29.18;55.70;98750.53;2056010;28;20499;-52
2023/07/14 03:35:26;;;;;;;10.73;5.75;;;;;;;29.22;55.77;98753.53;2053291;28;20050;-55
2023/07/14 03:36:28;;;;;;;13.50;5.25;;;;;;;29.21;55.81;98753.81;2055523;28;20117;-51
2023/07/14 03:37:28;;;;;;;16.20;6.82;;;;;;;29.21;55.73;98751.91;2056532;28;20061;-54
2023/07/14 03:38:30;;;;;;;15.27;6.13;;;;;;;29.22;55.59;98752.72;2054889;28;20676;-54
2023/07/14 03:39:31;;;;;;;19.92;6.78;;;;;;;29.22;55.69;98755.44;2056687;28;20061;-52
2023/07/14 03:40:32;;;;;;;15.80;6.22;;;;;;;29.21;55.53;98749.16;2055632;28;20046;-53
2023/07/14 03:41:34;;;;;;;10.02;5.35;;;;;;;29.20;55.64;98749.44;2052688;28;20038;-48
2023/07/14 03:42:38;;;;;;;14.75;6.00;;;;;;;29.21;55.64;98754.63;2056559;28;20644;-50
2023/07/14 03:43:40;;;;;;;16.52;6.72;;;;;;;29.15;55.95;98747.53;2054639;28;20157;-51
2023/07/14 03:44:41;;;;;;;13.18;6.13;;;;;;;29.14;56.10;98754.06;2055401;28;20038;-50
2023/07/14 03:45:42;;;;;;;11.07;6.25;;;;;;;29.12;55.97;98754.34;2056257;28;20104;-52
2023/07/14 03:46:45;;;;;;;16.45;6.82;;;;;;;29.13;56.25;98747.78;2055986;28;20061;-52
2023/07/14 03:47:46;;;;;;;10.50;5.93;;;;;;;29.12;56.18;98751.63;2054364;28;20046;-48
2023/07/14 03:48:49;;;;;;;11.05;5.82;;;;;;;29.13;55.97;98747.78;2053038;28;21469;-52
2023/07/14 03:49:49;;;;;;;13.70;5.80;;;;;;;29.14;56.25;98752.19;2054451;28;20054;-51
2023/07/14 03:50:51;;;;;;;12.18;6.57;;;;;;;29.15;55.94;98759.28;2058852;28;20952;-51
2023/07/14 03:51:53;;;;;;;15.30;6.88;;;;;;;29.14;56.23;98752.19;2065691;28;20052;-51
2023/07/14 03:52:54;;;;;;;14.00;6.13;;;;;;;29.14;56.01;98756.78;2057949;28;20059;-50
2023/07/14 03:53:55;;;;;;;16.65;6.20;;;;;;;29.11;56.25;98757.34;2054573;28;20057;-50
2023/07/14 03:54:56;;;;;;;18.77;7.47;;;;;;;29.11;56.33;98752.72;2057167;28;20061;-52
2023/07/14 03:55:58;;;;;;;18.63;6.03;;;;;;;29.14;56.20;98751.34;2058171;28;20061;-52
2023/07/14 03:56:59;;;;;;;16.60;5.88;;;;;;;29.14;56.07;98746.72;2057630;28;20053;-52
2023/07/14 03:58:01;;;;;;;21.25;6.35;;;;;;;29.11;56.22;98755.44;2057303;28;20058;-54
2023/07/14 03:59:04;;;;;;;16.98;6.57;;;;;;;29.12;56.23;98748.88;2057892;28;20086;-53
2023/07/14 04:00:13;;;;;;;19.10;6.28;;;;;;;29.11;56.36;98750.00;2053671;28;20592;-51
2023/07/14 04:01:14;;;;;;;13.30;6.40;;;;;;;29.10;56.20;98751.06;2056931;28;20068;-50
2023/07/14 04:02:17;;;;;;;15.85;6.45;;;;;;;29.11;56.10;98755.44;2058639;28;20044;-52
2023/07/14 04:03:18;;;;;;;19.85;5.95;;;;;;;29.14;55.90;98748.59;2057432;28;20134;-53
2023/07/14 04:04:20;;;;;;;18.60;7.00;;;;;;;29.15;55.66;98745.63;2057445;28;20552;-51
2023/07/14 04:05:22;;;;;;;17.73;6.20;;;;;;;29.18;56.09;98752.44;2058538;28;20111;-50
2023/07/14 04:06:23;;;;;;;17.55;7.22;;;;;;;29.17;55.71;98751.63;2053854;28;20842;-52
2023/07/14 04:07:25;;;;;;;13.43;5.55;;;;;;;29.21;55.52;98751.91;2054115;28;20054;-52
2023/07/14 04:08:25;;;;;;;13.60;7.38;;;;;;;29.18;55.69;98747.81;2058802;28;20054;-51
2023/07/14 04:09:27;;;;;;;14.00;5.28;;;;;;;29.22;55.51;98749.97;2056736;28;20103;-49
2023/07/14 04:10:28;;;;;;;15.57;6.35;;;;;;;29.22;55.73;98748.06;2057532;28;20055;-55
2023/07/14 04:11:30;;;;;;;20.00;6.20;;;;;;;29.18;55.61;98745.06;2058231;28;20160;-51
2023/07/14 04:12:31;;;;;;;14.13;6.65;;;;;;;29.16;55.71;98741.78;2052581;28;20062;-53
2023/07/14 04:13:34;;;;;;;8.00;5.25;;;;;;;29.16;55.27;98749.97;2056058;28;20046;-53
2023/07/14 04:14:35;;;;;;;22.63;7.10;;;;;;;29.18;55.63;98753.25;2057948;28;20046;-54
2023/07/14 04:15:37;;;;;;;13.20;5.57;;;;;;;29.21;55.18;98757.38;2056663;28;20610;-48
2023/07/14 04:16:37;;;;;;;17.95;6.22;;;;;;;29.20;55.18;98749.44;2057331;28;20116;-49
2023/07/14 04:17:41;;;;;;;17.30;5.93;;;;;;;29.22;55.40;98748.06;2055552;28;20725;-53
2023/07/14 04:18:42;;;;;;;15.93;6.57;;;;;;;29.20;55.24;98755.75;2053672;28;20054;-48
2023/07/14 04:19:44;;;;;;;15.85;6.25;;;;;;;29.22;55.18;98747.25;2054431;28;20111;-54
2023/07/14 04:20:45;;;;;;;12.57;5.57;;;;;;;29.21;55.32;98751.91;2056585;28;20440;-53
2023/07/14 04:21:47;;;;;;;18.27;6.70;;;;;;;29.21;55.28;98756.56;2066243;28;20045;-50
2023/07/14 04:22:48;;;;;;;17.80;7.80;;;;;;;29.22;55.18;98752.72;2056678;28;20058;-52
2023/07/14 04:23:50;;;;;;;14.90;6.43;;;;;;;29.23;55.10;98751.66;2064697;28;20092;-54
2023/07/14 04:24:50;;;;;;;13.48;6.15;;;;;;;29.20;55.31;98749.44;2059444;28;20061;-52
2023/07/14 04:25:52;;;;;;;21.02;6.40;;;;;;;29.20;55.30;98750.28;2058335;28;20599;-52
2023/07/14 04:26:55;;;;;;;16.15;7.28;;;;;;;29.22;55.11;98741.78;2053293;28;20050;-53
2023/07/14 04:27:57;;;;;;;14.60;6.50;;;;;;;29.21;55.35;98751.09;2059361;28;20571;-51
2023/07/14 04:28:58;;;;;;;20.75;7.90;;;;;;;29.21;55.18;98745.63;2056704;28;20057;-52
2023/07/14 04:30:00;;;;;;;11.55;6.55;;;;;;;29.20;55.06;98755.75;2058710;28;20046;-51
2023/07/14 04:31:01;;;;;;;17.27;5.90;;;;;;;29.18;55.14;98750.53;2057649;28;20070;-53
2023/07/14 04:32:03;;;;;;;17.25;6.57;;;;;;;29.18;55.17;98753.25;2057197;28;20050;-54
2023/07/14 04:33:05;;;;;;;17.48;6.30;;;;;;;29.17;55.13;98746.16;2054962;28;20050;-53
2023/07/14 04:34:07;;;;;;;14.40;6.28;;;;;;;29.19;55.06;98754.06;2059279;28;20519;-49
2023/07/14 04:35:08;;;;;;;13.45;6.05;;;;;;;29.18;55.17;98747.00;2058631;28;21186;-53
2023/07/14 04:36:11;;;;;;;16.27;6.28;;;;;;;29.17;54.70;98748.91;2058349;28;20046;-53
2023/07/14 04:37:11;;;;;;;17.25;6.25;;;;;;;29.17;55.17;98751.63;2058332;28;20049;-52
2023/07/14 04:38:13;;;;;;;13.73;6.25;;;;;;;29.16;54.99;98749.97;2056371;28;20129;-49
2023/07/14 04:39:14;;;;;;;13.20;5.53;;;;;;;29.17;54.91;98746.16;2053145;28;24356;-51
2023/07/14 04:40:16;;;;;;;15.05;6.82;;;;;;;29.18;55.11;98752.44;2056054;28;20691;-53
2023/07/14 04:41:17;;;;;;;10.65;5.70;;;;;;;29.20;54.95;98753.00;2058052;28;20054;-50
2023/07/14 04:42:19;;;;;;;17.88;6.53;;;;;;;29.23;54.95;98754.38;2057927;28;20476;-53
2023/07/14 04:43:20;;;;;;;16.30;6.03;;;;;;;29.21;54.88;98753.81;2057026;28;20073;-53
2023/07/14 04:44:21;;;;;;;14.00;5.40;;;;;;;29.23;54.85;98748.91;2057747;28;20547;-49
2023/07/14 04:45:22;;;;;;;11.60;5.55;;;;;;;29.22;54.69;98749.97;2056792;28;20078;-52
2023/07/14 04:46:24;;;;;;;15.43;6.43;;;;;;;29.23;54.82;98754.38;2053271;28;20105;-52
2023/07/14 04:47:25;;;;;;;12.75;6.05;;;;;;;29.21;54.74;98749.16;2056254;28;20061;-52
2023/07/14 04:48:28;;;;;;;12.20;6.10;;;;;;;29.23;54.85;98754.38;2057739;28;20085;-52
2023/07/14 04:49:29;;;;;;;18.13;6.68;;;;;;;29.23;54.55;98752.47;2056130;28;20082;-53
2023/07/14 04:50:31;;;;;;;19.38;5.93;;;;;;;29.23;54.80;98754.38;2057923;28;20050;-52
2023/07/14 04:51:32;;;;;;;17.48;6.10;;;;;;;29.22;54.76;98758.19;2055595;28;20496;-53
2023/07/14 04:52:34;;;;;;;22.27;7.05;;;;;;;29.22;55.03;98753.53;2055796;28;20122;-53